createdAt,value
2023-01-26T00:01:19.835Z,-2.30
2023-01-26T00:03:46.676Z,-2.20
2023-01-26T00:06:15.973Z,-2.20
2023-01-26T00:08:44.686Z,-2.20
2023-01-26T00:11:13.592Z,-2.20
2023-01-26T00:13:40.590Z,-2.20
2023-01-26T00:16:12.663Z,-2.10
2023-01-26T00:18:40.721Z,-2.10
2023-01-26T00:21:11.141Z,-2.10
2023-01-26T00:23:37.874Z,-2.10
2023-01-26T00:26:09.613Z,-2.20
2023-01-26T00:28:38.144Z,-2.30
2023-01-26T00:31:12.671Z,-2.30
2023-01-26T00:33:39.348Z,-2.30
2023-01-26T00:36:06.578Z,-2.30
2023-01-26T00:38:33.383Z,-2.30
2023-01-26T00:41:01.729Z,-2.30
2023-01-26T00:43:28.858Z,-2.30
2023-01-26T00:45:55.524Z,-2.40
2023-01-26T00:48:24.525Z,-2.40
2023-01-26T00:50:52.526Z,-2.30
2023-01-26T00:53:19.492Z,-2.30
2023-01-26T00:55:46.201Z,-2.30
2023-01-26T00:58:12.996Z,-2.20
2023-01-26T01:00:39.879Z,-2.20
2023-01-26T01:03:07.251Z,-2.30
2023-01-26T01:05:34.498Z,-2.30
2023-01-26T01:08:02.226Z,-2.30
2023-01-26T01:10:29.215Z,-2.30
2023-01-26T01:12:56.522Z,-2.30
2023-01-26T01:15:24.037Z,-2.30
2023-01-26T01:17:50.701Z,-2.30
2023-01-26T01:20:17.457Z,-2.30
2023-01-26T01:22:44.228Z,-2.20
2023-01-26T01:25:11.323Z,-2.30
2023-01-26T01:27:38.411Z,-2.40
2023-01-26T01:30:08.495Z,-2.40
2023-01-26T01:32:36.283Z,-2.50
2023-01-26T01:35:03.684Z,-2.40
2023-01-26T01:37:30.612Z,-2.30
2023-01-26T01:39:57.238Z,-2.40
2023-01-26T01:42:24.946Z,-2.40
2023-01-26T01:45:25.819Z,-2.40
2023-01-26T01:48:02.743Z,-2.50
2023-01-26T01:50:35.041Z,-2.50
2023-01-26T01:53:03.021Z,-2.50
2023-01-26T01:55:29.823Z,-2.50
2023-01-26T01:58:01.656Z,-2.40
2023-01-26T02:00:28.862Z,-2.40
2023-01-26T02:03:18.993Z,-2.40
2023-01-26T02:06:01.089Z,-2.50
2023-01-26T02:08:33.395Z,-2.50
2023-01-26T02:11:04.991Z,-2.60
2023-01-26T02:13:33.599Z,-2.60
2023-01-26T02:16:00.749Z,-2.50
2023-01-26T02:18:28.710Z,-2.50
2023-01-26T02:21:01.435Z,-2.40
2023-01-26T02:23:50.584Z,-2.50
2023-01-26T02:26:24.521Z,-2.40
2023-01-26T02:28:52.258Z,-2.40
2023-01-26T02:31:19.787Z,-2.30
2023-01-26T02:33:47.847Z,-2.30
2023-01-26T02:36:23.674Z,-2.30
2023-01-26T02:39:08.501Z,-2.30
2023-01-26T02:41:53.793Z,-2.30
2023-01-26T02:44:22.454Z,-2.30
2023-01-26T02:46:49.140Z,-2.30
2023-01-26T02:49:35.075Z,-2.30
2023-01-26T02:52:02.104Z,-2.30
2023-01-26T02:54:47.309Z,-2.20
2023-01-26T02:57:13.932Z,-2.30
2023-01-26T02:59:40.619Z,-2.20
2023-01-26T03:02:08.331Z,-2.40
2023-01-26T03:04:34.939Z,-2.40
2023-01-26T03:07:01.835Z,-2.30
2023-01-26T03:09:28.575Z,-2.30
2023-01-26T03:11:55.186Z,-2.30
2023-01-26T03:14:21.825Z,-2.20
2023-01-26T03:16:49.795Z,-2.30
2023-01-26T03:19:34.909Z,-2.30
2023-01-26T03:22:28.515Z,-2.30
2023-01-26T03:25:14.798Z,-2.30
2023-01-26T03:27:45.586Z,-2.20
2023-01-26T03:30:16.773Z,-2.30
2023-01-26T03:32:45.915Z,-2.30
2023-01-26T03:35:15.905Z,-2.20
2023-01-26T03:37:44.128Z,-2.10
2023-01-26T03:40:35.519Z,-2.00
2023-01-26T03:43:26.902Z,-2.00
2023-01-26T03:46:12.626Z,-2.00
2023-01-26T03:48:57.855Z,-2.00
2023-01-26T03:51:43.454Z,-2.00
2023-01-26T03:54:28.560Z,-2.10
2023-01-26T03:56:55.225Z,-2.00
2023-01-26T03:59:37.592Z,-2.00
2023-01-26T04:02:26.239Z,-1.90
2023-01-26T04:05:12.709Z,-2.00
2023-01-26T04:08:02.624Z,-2.00
2023-01-26T04:10:29.170Z,-1.90
2023-01-26T04:13:14.331Z,-1.90
2023-01-26T04:16:06.416Z,-1.90
2023-01-26T04:18:52.166Z,-1.90
2023-01-26T04:21:28.920Z,-1.90
2023-01-26T04:23:58.209Z,-2.00
2023-01-26T04:26:36.907Z,-2.00
2023-01-26T04:29:12.860Z,-2.10
2023-01-26T04:31:41.544Z,-2.10
2023-01-26T04:34:14.308Z,-2.00
2023-01-26T04:36:42.507Z,-2.00
2023-01-26T04:39:09.758Z,-2.00
2023-01-26T04:41:41.306Z,-1.90
2023-01-26T04:44:11.328Z,-2.00
2023-01-26T04:46:38.103Z,-2.00
2023-01-26T04:49:05.721Z,-2.00
2023-01-26T04:51:33.573Z,-1.90
2023-01-26T04:54:00.335Z,-1.90
2023-01-26T04:56:30.271Z,-2.00
2023-01-26T04:58:59.847Z,-2.10
2023-01-26T05:01:27.056Z,-2.10
2023-01-26T05:03:54.025Z,-2.10
2023-01-26T05:06:21.911Z,-2.10
2023-01-26T05:08:49.622Z,-2.00
2023-01-26T05:11:16.341Z,-2.10
2023-01-26T05:13:54.889Z,-2.10
2023-01-26T05:16:41.881Z,-2.10
2023-01-26T05:19:23.502Z,-2.00
2023-01-26T05:21:57.704Z,-2.00
2023-01-26T05:24:24.793Z,-2.00
2023-01-26T05:27:11.431Z,-2.00
2023-01-26T05:29:39.728Z,-2.00
2023-01-26T05:32:06.447Z,-2.00
2023-01-26T05:34:33.482Z,-2.00
2023-01-26T05:37:00.627Z,-2.00
2023-01-26T05:39:27.294Z,-2.00
2023-01-26T05:41:57.531Z,-1.90
2023-01-26T05:44:59.116Z,-2.00
2023-01-26T05:47:25.772Z,-2.10
2023-01-26T05:49:52.618Z,-2.00
2023-01-26T05:52:26.124Z,-2.10
2023-01-26T05:54:52.871Z,-2.00
2023-01-26T05:57:19.791Z,-1.90
2023-01-26T05:59:57.075Z,-1.80
2023-01-26T06:02:24.063Z,-1.90
2023-01-26T06:04:50.770Z,-2.00
2023-01-26T06:07:18.115Z,-1.90
2023-01-26T06:09:50.070Z,-2.00
2023-01-26T06:12:55.234Z,-2.00
2023-01-26T06:15:42.292Z,-2.20
2023-01-26T06:18:09.494Z,-2.10
2023-01-26T06:20:36.720Z,-2.10
2023-01-26T06:23:06.932Z,-2.20
2023-01-26T06:25:34.977Z,-2.20
2023-01-26T06:28:02.037Z,-2.20
2023-01-26T06:30:29.413Z,-2.10
2023-01-26T06:33:00.867Z,-2.00
2023-01-26T06:35:28.801Z,-1.90
2023-01-26T06:37:59.392Z,-1.90
2023-01-26T06:40:26.251Z,-1.80
2023-01-26T06:42:53.019Z,-1.80
2023-01-26T06:45:20.584Z,-1.80
2023-01-26T06:47:49.792Z,-1.80
2023-01-26T06:50:19.559Z,-1.90
2023-01-26T06:52:50.443Z,-1.90
2023-01-26T06:55:51.422Z,-2.00
2023-01-26T06:58:44.354Z,-1.90
2023-01-26T07:01:33.349Z,-1.90
2023-01-26T07:04:00.033Z,-1.80
2023-01-26T07:06:26.656Z,-1.70
2023-01-26T07:08:53.234Z,-1.60
2023-01-26T07:11:20.511Z,-1.60
2023-01-26T07:13:47.440Z,-1.70
2023-01-26T07:16:16.377Z,-1.80
2023-01-26T07:18:43.483Z,-1.80
2023-01-26T07:21:12.803Z,-1.70
2023-01-26T07:23:39.441Z,-1.70
2023-01-26T07:26:07.185Z,-1.70
2023-01-26T07:28:39.218Z,-1.70
2023-01-26T07:31:08.689Z,-1.70
2023-01-26T07:33:35.921Z,-1.70
2023-01-26T07:36:04.044Z,-1.70
2023-01-26T07:38:32.459Z,-1.60
2023-01-26T07:40:59.215Z,-1.70
2023-01-26T07:43:25.939Z,-1.60
2023-01-26T07:45:54.418Z,-1.50
2023-01-26T07:48:22.449Z,-1.50
2023-01-26T07:50:49.447Z,-1.40
2023-01-26T07:53:19.322Z,-1.40
2023-01-26T07:55:47.118Z,-1.40
2023-01-26T07:58:14.032Z,-1.30
2023-01-26T08:00:40.858Z,-1.30
2023-01-26T08:03:07.886Z,-1.30
2023-01-26T08:05:36.831Z,-1.30
2023-01-26T08:08:04.704Z,-1.20
2023-01-26T08:10:31.859Z,-1.20
2023-01-26T08:13:02.562Z,-1.20
2023-01-26T08:15:30.294Z,-1.10
2023-01-26T08:17:56.950Z,-1.10
2023-01-26T08:20:23.707Z,-1.00
2023-01-26T08:22:50.388Z,-1.10
2023-01-26T08:25:17.062Z,-1.20
2023-01-26T08:27:43.673Z,-1.10
2023-01-26T08:30:11.403Z,-1.10
2023-01-26T08:32:38.283Z,-1.10
2023-01-26T08:35:05.360Z,-1.00
2023-01-26T08:37:31.980Z,-1.10
2023-01-26T08:39:58.567Z,-1.10
2023-01-26T08:42:25.318Z,-1.20
2023-01-26T08:44:52.438Z,-1.20
2023-01-26T08:47:19.195Z,-1.20
2023-01-26T08:49:45.817Z,-1.10
2023-01-26T08:52:12.537Z,-1.10
2023-01-26T08:54:39.317Z,-1.00
2023-01-26T08:57:06.485Z,-1.10
2023-01-26T08:59:33.127Z,-1.10
2023-01-26T09:01:59.909Z,-1.10
2023-01-26T09:04:27.308Z,-1.10
2023-01-26T09:06:54.108Z,-1.00
2023-01-26T09:09:20.731Z,-1.10
2023-01-26T09:11:47.400Z,-1.00
2023-01-26T09:14:14.114Z,-0.90
2023-01-26T09:16:41.065Z,-0.80
2023-01-26T09:19:07.925Z,-0.80
2023-01-26T09:21:34.640Z,-0.80
2023-01-26T09:24:02.383Z,-0.60
2023-01-26T09:26:30.507Z,-0.60
2023-01-26T09:28:57.474Z,-0.50
2023-01-26T09:31:24.387Z,-0.60
2023-01-26T09:33:51.964Z,-0.40
2023-01-26T09:36:18.986Z,-0.30
2023-01-26T09:38:45.806Z,-0.40
2023-01-26T09:41:43.212Z,-0.50
2023-01-26T09:44:15.883Z,-0.50
2023-01-26T09:46:51.289Z,-0.50
2023-01-26T09:49:27.068Z,-0.50
2023-01-26T09:52:18.552Z,-0.60
2023-01-26T09:54:58.283Z,-0.50
2023-01-26T09:57:47.759Z,-0.40
2023-01-26T10:00:26.288Z,-0.40
2023-01-26T10:03:19.170Z,-0.30
2023-01-26T10:06:06.063Z,-0.30
2023-01-26T10:09:00.407Z,-0.40
2023-01-26T10:11:44.370Z,-0.40
2023-01-26T10:14:18.531Z,-0.40
2023-01-26T10:16:48.238Z,-0.40
2023-01-26T10:19:28.669Z,-0.40
2023-01-26T10:21:57.672Z,-0.30
2023-01-26T10:24:24.485Z,-0.30
2023-01-26T10:26:56.343Z,-0.20
2023-01-26T10:29:23.333Z,-0.10
2023-01-26T10:31:49.997Z,-0.20
2023-01-26T10:34:25.170Z,-0.30
2023-01-26T10:37:02.342Z,-0.30
2023-01-26T10:39:29.000Z,-0.40
2023-01-26T10:41:58.798Z,-0.40
2023-01-26T10:44:35.967Z,-0.40
2023-01-26T10:47:22.650Z,-0.40
2023-01-26T10:49:49.591Z,-0.40
2023-01-26T10:52:17.729Z,-0.40
2023-01-26T10:54:46.000Z,-0.30
2023-01-26T10:57:30.627Z,-0.30
2023-01-26T11:00:00.267Z,-0.20
2023-01-26T11:02:31.155Z,-0.20
2023-01-26T11:05:21.390Z,-0.20
2023-01-26T11:08:02.058Z,-0.20
2023-01-26T11:10:38.092Z,-0.10
2023-01-26T11:13:19.109Z,-0.10
2023-01-26T11:15:52.925Z,-0.10
2023-01-26T11:18:50.662Z,-0.10
2023-01-26T11:21:48.194Z,-0.10
2023-01-26T11:24:21.036Z,-0.20
2023-01-26T11:27:12.155Z,-0.30
2023-01-26T11:30:06.604Z,-0.20
2023-01-26T11:32:58.279Z,-0.10
2023-01-26T11:35:46.091Z,0.00
2023-01-26T11:38:41.925Z,0.00
2023-01-26T11:41:24.988Z,-0.20
2023-01-26T11:44:13.674Z,-0.30
2023-01-26T11:47:09.381Z,-0.20
2023-01-26T11:49:39.375Z,-0.20
2023-01-26T11:52:25.119Z,-0.30
2023-01-26T11:55:11.308Z,-0.40
2023-01-26T11:57:44.135Z,-0.30
2023-01-26T12:00:29.555Z,-0.30
2023-01-26T12:03:04.151Z,-0.10
2023-01-26T12:05:47.727Z,0.10
2023-01-26T12:08:38.294Z,0.10
2023-01-26T12:11:22.967Z,0.10
2023-01-26T12:14:20.448Z,0.10
2023-01-26T12:17:17.554Z,0.10
2023-01-26T12:20:04.652Z,0.00
2023-01-26T12:22:37.098Z,-0.10
2023-01-26T12:25:26.831Z,-0.10
2023-01-26T12:27:56.549Z,0.00
2023-01-26T12:30:41.914Z,-0.20
2023-01-26T12:33:10.955Z,-0.20
2023-01-26T12:36:16.835Z,-0.20
2023-01-26T12:38:58.441Z,0.00
2023-01-26T12:41:43.859Z,-0.20
2023-01-26T12:44:22.561Z,-0.20
2023-01-26T12:47:01.315Z,-0.30
2023-01-26T12:49:34.862Z,-0.30
2023-01-26T12:52:10.546Z,-0.20
2023-01-26T12:54:42.802Z,-0.10
2023-01-26T12:57:16.263Z,-0.10
2023-01-26T12:59:48.165Z,-0.20
2023-01-26T13:02:15.477Z,0.00
2023-01-26T13:04:46.191Z,0.00
2023-01-26T13:07:37.026Z,0.00
2023-01-26T13:10:17.550Z,-0.10
2023-01-26T13:13:00.655Z,-0.10
2023-01-26T13:15:30.297Z,-0.20
2023-01-26T13:18:04.082Z,-0.20
2023-01-26T13:20:39.880Z,-0.20
2023-01-26T13:23:28.406Z,-0.20
2023-01-26T13:26:16.742Z,-0.20
2023-01-26T13:28:45.455Z,-0.20
2023-01-26T13:31:13.267Z,-0.10
2023-01-26T13:33:41.777Z,-0.10
2023-01-26T13:36:16.959Z,-0.10
2023-01-26T13:38:53.055Z,-0.10
2023-01-26T13:41:21.008Z,-0.10
2023-01-26T13:43:54.373Z,-0.20
2023-01-26T13:46:49.546Z,-0.20
2023-01-26T13:49:44.232Z,-0.20
2023-01-26T13:52:25.494Z,-0.10
2023-01-26T13:54:54.718Z,-0.10
2023-01-26T13:57:29.833Z,-0.10
2023-01-26T14:00:00.866Z,-0.20
2023-01-26T14:02:33.857Z,-0.10
2023-01-26T14:05:03.167Z,-0.10
2023-01-26T14:07:40.938Z,-0.10
2023-01-26T14:10:15.109Z,-0.20
2023-01-26T14:12:44.191Z,-0.20
2023-01-26T14:15:32.332Z,-0.10
2023-01-26T14:18:02.178Z,-0.10
2023-01-26T14:20:36.775Z,-0.10
2023-01-26T14:23:13.743Z,0.00
2023-01-26T14:25:43.321Z,0.00
2023-01-26T14:28:16.289Z,-0.10
2023-01-26T14:30:43.488Z,-0.10
2023-01-26T14:33:14.016Z,0.00
2023-01-26T14:35:56.245Z,0.00
2023-01-26T14:38:22.971Z,0.00
2023-01-26T14:40:58.927Z,0.10
2023-01-26T14:43:27.137Z,0.10
2023-01-26T14:46:17.244Z,0.10
2023-01-26T14:48:56.237Z,0.10
2023-01-26T14:51:25.078Z,0.00
2023-01-26T14:53:55.544Z,0.00
2023-01-26T14:56:37.096Z,0.00
2023-01-26T14:59:06.157Z,0.10
2023-01-26T15:01:33.943Z,0.10
2023-01-26T15:04:17.785Z,0.10
2023-01-26T15:06:44.736Z,0.10
2023-01-26T15:09:22.523Z,0.10
2023-01-26T15:12:19.019Z,0.00
2023-01-26T15:14:45.606Z,0.10
2023-01-26T15:17:40.779Z,0.10
2023-01-26T15:20:22.798Z,0.10
2023-01-26T15:22:51.516Z,0.00
2023-01-26T15:25:25.972Z,0.00
2023-01-26T15:27:58.926Z,0.00
2023-01-26T15:30:30.280Z,0.10
2023-01-26T15:32:58.264Z,0.10
2023-01-26T15:35:57.574Z,0.20
2023-01-26T15:38:24.317Z,0.20
2023-01-26T15:40:50.929Z,0.20
2023-01-26T15:43:19.302Z,0.20
2023-01-26T15:45:52.096Z,0.10
2023-01-26T15:48:18.836Z,0.20
2023-01-26T15:50:47.960Z,0.20
2023-01-26T15:53:16.199Z,0.20
2023-01-26T15:55:44.122Z,0.10
2023-01-26T15:58:10.898Z,0.20
2023-01-26T16:00:38.622Z,0.20
2023-01-26T16:03:14.887Z,0.10
2023-01-26T16:05:42.135Z,0.10
2023-01-26T16:08:10.461Z,0.00
2023-01-26T16:10:40.360Z,0.00
2023-01-26T16:13:17.760Z,0.00
2023-01-26T16:15:47.619Z,0.00
2023-01-26T16:18:14.710Z,0.00
2023-01-26T16:20:44.246Z,0.10
2023-01-26T16:23:23.109Z,0.00
2023-01-26T16:25:50.577Z,0.00
2023-01-26T16:28:17.970Z,0.00
2023-01-26T16:30:46.143Z,-0.10
2023-01-26T16:33:15.235Z,-0.10
2023-01-26T16:35:42.185Z,0.00
2023-01-26T16:38:12.797Z,0.00
2023-01-26T16:40:41.205Z,0.00
2023-01-26T16:43:23.838Z,0.10
2023-01-26T16:45:51.602Z,0.10
2023-01-26T16:48:18.551Z,0.20
2023-01-26T16:50:45.737Z,0.10
2023-01-26T16:53:21.624Z,0.10
2023-01-26T16:55:48.326Z,0.10
2023-01-26T16:58:14.943Z,0.20
2023-01-26T17:00:41.798Z,0.20
2023-01-26T17:03:12.276Z,0.20
2023-01-26T17:05:40.539Z,0.20
2023-01-26T17:08:07.741Z,0.30
2023-01-26T17:10:34.608Z,0.30
2023-01-26T17:13:01.402Z,0.20
2023-01-26T17:15:29.145Z,0.20
2023-01-26T17:17:56.046Z,0.20
2023-01-26T17:20:23.118Z,0.20
2023-01-26T17:22:50.034Z,0.20
2023-01-26T17:25:18.122Z,0.40
2023-01-26T17:27:46.356Z,0.30
2023-01-26T17:30:13.486Z,0.40
2023-01-26T17:32:42.140Z,0.30
2023-01-26T17:35:09.325Z,0.30
2023-01-26T17:37:37.430Z,0.30
2023-01-26T17:40:04.679Z,0.30
2023-01-26T17:42:33.348Z,0.30
2023-01-26T17:45:00.545Z,0.30
2023-01-26T17:47:27.340Z,0.30
2023-01-26T17:49:54.011Z,0.30
2023-01-26T17:52:20.643Z,0.30
2023-01-26T17:54:47.254Z,0.30
2023-01-26T17:57:15.048Z,0.30
2023-01-26T17:59:41.743Z,0.20
2023-01-26T18:02:12.857Z,0.20
2023-01-26T18:04:40.008Z,0.20
2023-01-26T18:07:06.813Z,0.10
2023-01-26T18:09:33.399Z,0.20
2023-01-26T18:12:00.028Z,0.10
2023-01-26T18:14:26.706Z,0.10
2023-01-26T18:16:53.357Z,0.10
2023-01-26T18:19:20.085Z,0.20
2023-01-26T18:21:47.509Z,0.20
2023-01-26T18:24:14.960Z,0.20
2023-01-26T18:26:41.718Z,0.20
2023-01-26T18:29:08.801Z,0.20
2023-01-26T18:31:40.421Z,0.20
2023-01-26T18:34:07.463Z,0.30
2023-01-26T18:36:34.243Z,0.30
2023-01-26T18:39:04.788Z,0.20
2023-01-26T18:41:32.715Z,0.20
2023-01-26T18:44:00.422Z,0.30
2023-01-26T18:46:28.403Z,0.20
2023-01-26T18:49:00.482Z,0.30
2023-01-26T18:51:29.074Z,0.30
2023-01-26T18:53:55.794Z,0.30
2023-01-26T18:56:22.428Z,0.20
2023-01-26T18:58:53.100Z,0.20
2023-01-26T19:01:21.115Z,0.20
2023-01-26T19:03:53.816Z,0.20
2023-01-26T19:06:21.828Z,0.20
2023-01-26T19:08:58.671Z,0.20
2023-01-26T19:11:33.729Z,0.20
2023-01-26T19:14:00.925Z,0.20
2023-01-26T19:16:28.848Z,0.20
2023-01-26T19:18:56.080Z,0.20
2023-01-26T19:21:24.692Z,0.20
2023-01-26T19:23:52.809Z,0.20
2023-01-26T19:26:21.738Z,0.20
2023-01-26T19:28:50.904Z,0.20
2023-01-26T19:31:19.495Z,0.20
2023-01-26T19:33:54.456Z,0.20
2023-01-26T19:36:23.314Z,0.20
2023-01-26T19:38:51.243Z,0.30
2023-01-26T19:41:19.243Z,0.30
2023-01-26T19:43:46.061Z,0.30
2023-01-26T19:46:14.709Z,0.40
2023-01-26T19:48:41.679Z,0.40
2023-01-26T19:51:12.341Z,0.50
2023-01-26T19:53:42.368Z,0.50
2023-01-26T19:56:30.442Z,0.50
2023-01-26T19:58:59.152Z,0.50
2023-01-26T20:01:27.185Z,0.60
2023-01-26T20:03:57.246Z,0.60
2023-01-26T20:06:27.387Z,0.60
2023-01-26T20:08:55.056Z,0.70
2023-01-26T20:11:24.978Z,0.60
2023-01-26T20:13:59.681Z,0.50
2023-01-26T20:16:30.122Z,0.50
2023-01-26T20:18:58.604Z,0.40
2023-01-26T20:21:26.013Z,0.50
2023-01-26T20:23:55.498Z,0.60
2023-01-26T20:26:25.097Z,0.60
2023-01-26T20:28:52.442Z,0.60
2023-01-26T20:31:21.472Z,0.60
2023-01-26T20:33:49.389Z,0.50
2023-01-26T20:36:19.176Z,0.50
2023-01-26T20:38:48.135Z,0.50
2023-01-26T20:41:18.886Z,0.50
2023-01-26T20:43:58.731Z,0.50
2023-01-26T20:46:29.385Z,0.40
2023-01-26T20:48:56.814Z,0.40
2023-01-26T20:51:30.162Z,0.50
2023-01-26T20:53:57.628Z,0.50
2023-01-26T20:56:24.375Z,0.50
2023-01-26T20:58:55.637Z,0.60
2023-01-26T21:01:23.556Z,0.60
2023-01-26T21:03:50.204Z,0.60
2023-01-26T21:06:20.707Z,0.70
2023-01-26T21:08:48.556Z,0.70
2023-01-26T21:11:17.194Z,0.70
2023-01-26T21:13:45.183Z,0.70
2023-01-26T21:16:16.344Z,0.70
2023-01-26T21:18:43.820Z,0.70
2023-01-26T21:21:13.685Z,0.70
2023-01-26T21:23:40.788Z,0.60
2023-01-26T21:26:10.938Z,0.50
2023-01-26T21:28:37.569Z,0.60
2023-01-26T21:31:06.077Z,0.60
2023-01-26T21:33:34.176Z,0.60
2023-01-26T21:36:02.619Z,0.70
2023-01-26T21:38:40.743Z,0.70
2023-01-26T21:41:37.400Z,0.70
2023-01-26T21:44:10.223Z,0.80
2023-01-26T21:46:37.340Z,0.80
2023-01-26T21:49:04.714Z,0.80
2023-01-26T21:51:50.080Z,0.80
2023-01-26T21:54:16.947Z,0.90
2023-01-26T21:56:43.627Z,0.90
2023-01-26T21:59:14.452Z,0.80
2023-01-26T22:01:43.962Z,0.90
2023-01-26T22:04:14.486Z,0.90
2023-01-26T22:06:41.146Z,0.80
2023-01-26T22:09:09.806Z,0.80
2023-01-26T22:11:37.032Z,0.70
2023-01-26T22:14:03.695Z,0.70
2023-01-26T22:16:30.420Z,0.70
2023-01-26T22:18:57.079Z,0.70
2023-01-26T22:21:24.306Z,0.70
2023-01-26T22:23:50.930Z,0.80
2023-01-26T22:26:21.309Z,0.80
2023-01-26T22:28:56.444Z,0.80
2023-01-26T22:31:26.811Z,1.00
2023-01-26T22:33:54.964Z,1.00
2023-01-26T22:36:22.289Z,1.10
2023-01-26T22:38:49.727Z,1.10
2023-01-26T22:41:20.201Z,1.10
2023-01-26T22:43:48.423Z,1.10
2023-01-26T22:46:19.649Z,1.10
2023-01-26T22:48:46.499Z,1.10
2023-01-26T22:51:22.478Z,1.20
2023-01-26T22:53:50.526Z,1.20
2023-01-26T22:56:18.180Z,1.20
2023-01-26T22:58:57.520Z,1.20
2023-01-26T23:01:28.095Z,1.20
2023-01-26T23:03:55.674Z,1.20
2023-01-26T23:06:22.416Z,1.20
2023-01-26T23:08:49.497Z,1.20
2023-01-26T23:11:25.522Z,1.30
2023-01-26T23:13:53.767Z,1.30
2023-01-26T23:16:23.856Z,1.30
2023-01-26T23:18:52.006Z,1.20
2023-01-26T23:21:19.608Z,1.20
2023-01-26T23:23:46.489Z,1.20
2023-01-26T23:26:13.236Z,1.30
2023-01-26T23:28:42.001Z,1.20
2023-01-26T23:31:10.172Z,1.30
2023-01-26T23:33:37.884Z,1.30
2023-01-26T23:36:05.966Z,1.30
2023-01-26T23:38:32.806Z,1.30
2023-01-26T23:41:02.700Z,1.30
2023-01-26T23:43:29.385Z,1.30
2023-01-26T23:45:56.753Z,1.30
2023-01-26T23:48:24.951Z,1.30
2023-01-26T23:50:59.937Z,1.30
2023-01-26T23:53:27.066Z,1.20
2023-01-26T23:55:53.866Z,1.20
2023-01-26T23:58:20.722Z,1.20
